Archival Weather

Luke Afb

Glendale, Arizona (KLUF)

Report from: Friday, April 19, 2024 8:55 PM MST
Current time: Monday, June 24, 2024 3:29 AM MST

Current weather – Weather history – Daily summaries
Weather forecast

Temperature27.5°C (81.5°F)
Heat index26.3°C (79.3°F)
Dew point-4.5°C (23.9°F)
Winds Calm
Visibility10 mi. (16.1 km)
Clouds Ceiling: Broken clouds 16,000 ft. (4,877 m)
Altimeter29.76 in.Hg (1008 mB)
Relative humidity12 %
Density altitude1,742 ft. (531 m)
Sea-level pressure100.7 kPa (1007 mB, 29.72 in.Hg)
Remarks Fully automated report
System requires maintenance
Automated weather observing station with precipitation discriminator
Flight conditions Visual Meteorological Conditions
Raw dataKLUF 200355Z AUTO 00000KT 10SM BKN160 28/M04 A2976 RMK AO2 SLP065 T02751045 $
An error has occurred. This application may no longer respond until reloaded. Reload 🗙